KECG/ECG METAR and TAF weather

Enter ICAO airport designator
Station Type Date Time Source
KECG METAR 2018/12/13 14:54 UTC NOAA

KECG 131454Z 11003KT 10SM CLR 09/04 A3034 RMK AO2 SLP275 T00890039 51019


Station Type Date Time Source
KECG Decoded METAR 2018/12/13 14:54 UTC NOAA

ELIZABETH CITY C/G REGN AIRPORT , NC, United States (KECG) 36-15N 076-10W 11M
Dec 13, 2018 - 09:54 AM EST / 2018.12.13 1454 UTC
Wind: from the ESE (110 degrees) at 3 MPH (3 KT):0
Visibility: 10 mile(s):0
Sky conditions: clear
Temperature: 48.0 F (8.9 C)
Dew Point: 39.0 F (3.9 C)
Relative Humidity: 70%
Pressure (altimeter): 30.34 in. Hg (1027 hPa)
Pressure tendency: 0.06 inches (1.9 hPa) higher than three hours ago
ob: KECG 131454Z 11003KT 10SM CLR 09/04 A3034 RMK AO2 SLP275 T00890039 51019
cycle: 15

Station Type Date Time Source
KECG TAF 2018/12/13 13:09 UTC NOAA

TAF KECG 131303Z 1313/1412 VRB02KT 2SM BR SCT002
TEMPO 1313/1314 1/2SM FG VV002
FM131430 VRB04KT P6SM BKN200


Example: see airport list